WetterOnline ( http://www.wetteronline.ch )

Wetter aktuell Freiburg

Aktuelles Wetter: Freiburg/Flugplatz (236m)

6-stündlich | Neueste Meldungen
Ortszeit Temperatur Wetter
Mo, 21.01. 1:00 -1.5° C bedeckt
So, 20.01. 19:00 -1.2° C bedeckt
So, 20.01. 13:00 -0.0° C bedeckt
So, 20.01. 7:00 -3.1° C bedeckt
So, 20.01. 1:00 -4.7° C wolkig
Sa, 19.01. 19:00 -2.9° C bewölkt
Sa, 19.01. 13:00 1.1° C wolkenlos
Sa, 19.01. 7:00 -5.6° C bedeckt
Ortszeit Temperatur Wetter
Mo, 21.01. 1:30 -1.5° C bedeckt
Mo, 21.01. 1:20 -1.5° C bedeckt
Mo, 21.01. 1:10 -1.5° C bedeckt
Mo, 21.01. 1:00 -1.5° C bedeckt
Mo, 21.01. 0:40 -1.5° C bedeckt
Mo, 21.01. 0:30 -1.5° C bedeckt
Mo, 21.01. 0:00 -1.5° C bedeckt
So, 20.01. 23:30 -1.5° C bedeckt
So, 20.01. 23:00 -1.6° C bedeckt
So, 20.01. 22:30 -1.6° C bedeckt
Ortszeit Relative Feuchte Sichtweite
Mo, 21.01. 1:00 86% 4.6 km
So, 20.01. 19:00 90% 3.7 km
So, 20.01. 13:00 81% 7 km
So, 20.01. 7:00 87% 21 km
So, 20.01. 1:00 91% 10 km
Sa, 19.01. 19:00 89% 10 km
Sa, 19.01. 13:00 64% 24 km
Sa, 19.01. 7:00 91% 12 km
Ortszeit Relative Feuchte Sichtweite
Mo, 21.01. 1:30 86% 4.7 km
Mo, 21.01. 1:20 86% -
Mo, 21.01. 1:10 86% -
Mo, 21.01. 1:00 86% 4.6 km
Mo, 21.01. 0:40 86% -
Mo, 21.01. 0:30 86% 5.0 km
Mo, 21.01. 0:00 86% 5.0 km
So, 20.01. 23:30 85% 5.0 km
So, 20.01. 23:00 86% 4.4 km
So, 20.01. 22:30 87% 4.5 km
Ortszeit Niederschlagsmenge Niederschlagsart
Mo, 21.01. 1:00 0.0 l/m2 in 6 Std. -
So, 20.01. 19:00 0.0 l/m2 in 12 Std. -
So, 20.01. 13:00 0.0 l/m2 in 6 Std. -
So, 20.01. 7:00 0.0 l/m2 in 12 Std. -
So, 20.01. 1:00 0.0 l/m2 in 6 Std. -
Sa, 19.01. 19:00 0.0 l/m2 in 12 Std. -
Sa, 19.01. 13:00 0.0 l/m2 in 6 Std. -
Sa, 19.01. 7:00 0.0 l/m2 in 12 Std. -
Ortszeit Niederschlagsmenge Niederschlagsart
Mo, 21.01. 1:30 0.0 l/m2 in 1 Std. -
Mo, 21.01. 1:20 keine Meldung -
Mo, 21.01. 1:10 keine Meldung -
Mo, 21.01. 1:00 0.0 l/m2 in 1 Std. -
Mo, 21.01. 0:40 keine Meldung -
Mo, 21.01. 0:30 0.0 l/m2 in 1 Std. -
Mo, 21.01. 0:00 0.0 l/m2 in 1 Std. -
So, 20.01. 23:30 0.0 l/m2 in 1 Std. -
So, 20.01. 23:00 0.0 l/m2 in 1 Std. -
So, 20.01. 22:30 0.0 l/m2 in 1 Std. -
Ortszeit Stärke Spitze Richtung
km/h Bft. km/h Grad Sektor
Mo, 21.01. 1:00 4 1 14 330° NW
So, 20.01. 19:00 7 2 14 320° NW
So, 20.01. 13:00 4 1 11 310° NW
So, 20.01. 7:00 0 0 7 - -
So, 20.01. 1:00 0 0 7 - -
Sa, 19.01. 19:00 4 1 14 80° O
Sa, 19.01. 13:00 7 2 11 240° SW
Sa, 19.01. 7:00 4 1 7 20° N
Ortszeit Stärke Spitze Richtung
km/h Bft. km/h Grad Sektor
Mo, 21.01. 1:30 6 1 7 340° N
Mo, 21.01. 1:20 6 1 - 340° N
Mo, 21.01. 1:10 4 1 - 320° NW
Mo, 21.01. 1:00 4 1 7 330° NW
Mo, 21.01. 0:40 7 2 - 320° NW
Mo, 21.01. 0:30 7 2 7 330° NW
Mo, 21.01. 0:00 4 1 11 10° N
So, 20.01. 23:30 4 1 11 360° N
So, 20.01. 23:00 6 1 9 340° N
So, 20.01. 22:30 7 2 7 330° NW
Ortszeit Untergrenze Bedeckung Gattung
total tief tief mittel hoch
Mo, 21.01. 1:00 240 m 8/8 8/8 - - -
So, 20.01. 19:00 180 m 8/8 8/8 - - -
So, 20.01. 13:00 1170 m 8/8 8/8 - - -
So, 20.01. 7:00 2700 m 8/8 8/8 - - -
So, 20.01. 1:00 2700 m 8/8 1/8 - - -
Sa, 19.01. 19:00 4800 m 7/8 7/8 - - -
Sa, 19.01. 13:00 - 0/8 0/8 - - -
Sa, 19.01. 7:00 4500 m 8/8 8/8 - - -
Ortszeit Bedeckungsgrad in Achtel und Wolkenuntergrenze
Mo, 21.01. 1:30 8(240m)
Mo, 21.01. 1:20 8(240m)
Mo, 21.01. 1:10 8(240m)
Mo, 21.01. 1:00 8(240m)
Mo, 21.01. 0:40 8(240m)
Mo, 21.01. 0:30 8(240m)
Mo, 21.01. 0:00 8(240m)
So, 20.01. 23:30 8(240m)
So, 20.01. 23:00 8(210m)
So, 20.01. 22:30 8(210m)
Ortszeit Luftdruck NN (hPa) Tendenz (hPa in 3 Std.)
Mo, 21.01. 1:00 1020 + 1,0
So, 20.01. 19:00 1018 + 1,6
So, 20.01. 13:00 1016 + 0,8
So, 20.01. 7:00 1014 - 0,3
So, 20.01. 1:00 1015 - 0,1
Sa, 19.01. 19:00 1015 - 0,3
Sa, 19.01. 13:00 1017 - 1,2
Sa, 19.01. 7:00 1018 - 0,5
Ortszeit Luftdruck NN (hPa) Tendenz (hPa in 3 Std.)
Mo, 21.01. 1:30 1020 + 0,8
Mo, 21.01. 1:20 1020 keine Meldung
Mo, 21.01. 1:10 1020 keine Meldung
Mo, 21.01. 1:00 1020 + 1,0
Mo, 21.01. 0:40 1020 keine Meldung
Mo, 21.01. 0:30 1020 + 1,2
Mo, 21.01. 0:00 1020 + 1,3
So, 20.01. 23:30 1020 + 1,3
So, 20.01. 23:00 1020 + 1,4
So, 20.01. 22:30 1020 + 1,4
Ortszeit Schneehöhe (cm)
Mo, 21.01. 1:00 0
So, 20.01. 19:00 0
So, 20.01. 13:00 0
So, 20.01. 7:00 0
So, 20.01. 1:00 0
Sa, 19.01. 19:00 0
Sa, 19.01. 13:00 0
Sa, 19.01. 7:00 0
Ortszeit Schneehöhe (cm)
Mo, 21.01. 1:30 0
Mo, 21.01. 1:20 0
Mo, 21.01. 1:10 0
Mo, 21.01. 1:00 0
Mo, 21.01. 0:40 0
Mo, 21.01. 0:30 0
Mo, 21.01. 0:00 0
So, 20.01. 23:30 0
So, 20.01. 23:00 0
So, 20.01. 22:30 0
Link zu dieser Seite / Seite empfehlen

Das Wetter in ...